createdAt,value
2019-04-24T00:01:48.718Z,13.60
2019-04-24T00:06:19.138Z,12.73
2019-04-24T00:08:29.517Z,14.10
2019-04-24T00:10:29.953Z,12.43
2019-04-24T00:12:49.907Z,12.80
2019-04-24T00:15:22.815Z,12.93
2019-04-24T00:17:15.419Z,13.00
2019-04-24T00:19:23.360Z,13.50
2019-04-24T00:21:21.602Z,11.80
2019-04-24T00:23:18.651Z,13.60
2019-04-24T00:25:23.377Z,14.10
2019-04-24T00:27:19.730Z,13.30
2019-04-24T00:31:25.178Z,13.60
2019-04-24T00:35:58.258Z,13.43
2019-04-24T00:38:00.692Z,11.97
2019-04-24T00:39:49.912Z,13.73
2019-04-24T00:44:05.048Z,12.97
2019-04-24T00:46:26.533Z,12.83
2019-04-24T00:48:16.108Z,12.53
2019-04-24T00:50:10.657Z,13.20
2019-04-24T00:56:45.486Z,13.60
2019-04-24T01:00:43.899Z,12.70
2019-04-24T01:03:04.403Z,12.00
2019-04-24T01:05:38.240Z,12.60
2019-04-24T01:08:01.603Z,12.33
2019-04-24T01:10:21.377Z,12.20
2019-04-24T01:14:22.997Z,13.20
2019-04-24T01:18:30.795Z,12.80
2019-04-24T01:24:43.059Z,14.00
2019-04-24T01:26:48.466Z,13.90
2019-04-24T01:29:01.887Z,13.20
2019-04-24T01:35:27.788Z,13.60
2019-04-24T01:39:56.070Z,12.53
2019-04-24T01:42:16.331Z,14.40
2019-04-24T01:44:03.779Z,13.30
2019-04-24T01:46:14.742Z,14.17
2019-04-24T01:50:18.190Z,13.90
2019-04-24T01:56:34.317Z,13.17
2019-04-24T02:02:43.962Z,13.90
2019-04-24T02:07:09.736Z,13.10
2019-04-24T02:09:13.815Z,14.27
2019-04-24T02:11:28.915Z,13.93
2019-04-24T02:15:30.230Z,14.33
2019-04-24T02:19:32.967Z,14.80
2019-04-24T02:26:03.298Z,15.23
2019-04-24T02:29:41.213Z,14.77
2019-04-24T02:32:23.094Z,16.43
2019-04-24T02:34:08.376Z,15.20
2019-04-24T02:36:34.354Z,16.20
2019-04-24T02:38:42.879Z,15.97
2019-04-24T02:40:38.122Z,15.80
2019-04-24T02:42:56.575Z,17.23
2019-04-24T02:46:59.373Z,15.43
2019-04-24T02:50:58.413Z,16.57
2019-04-24T02:53:11.703Z,17.80
2019-04-24T02:55:10.989Z,15.93
2019-04-24T03:01:15.554Z,16.33
2019-04-24T03:03:35.015Z,17.27
2019-04-24T03:12:22.214Z,16.90
2019-04-24T03:16:37.978Z,15.60
2019-04-24T03:18:35.672Z,16.33
2019-04-24T03:24:57.310Z,17.77
2019-04-24T03:31:17.206Z,16.93
2019-04-24T03:33:43.313Z,15.03
2019-04-24T03:35:42.189Z,16.43
2019-04-24T03:39:56.510Z,16.40
2019-04-24T03:45:44.438Z,17.53
2019-04-24T03:50:04.179Z,16.40
2019-04-24T03:52:20.839Z,16.83
2019-04-24T03:56:32.804Z,17.97
2019-04-24T04:07:31.065Z,16.77
2019-04-24T04:09:46.079Z,18.60
2019-04-24T04:11:45.556Z,16.93
2019-04-24T04:13:41.220Z,18.63
2019-04-24T04:15:47.614Z,19.37
2019-04-24T04:20:41.326Z,17.43
2019-04-24T04:24:40.416Z,18.80
2019-04-24T04:26:50.702Z,19.47
2019-04-24T04:29:23.853Z,18.47
2019-04-24T04:31:31.123Z,17.63
2019-04-24T04:35:49.571Z,19.30
2019-04-24T04:40:42.878Z,17.80
2019-04-24T04:47:03.742Z,18.60
2019-04-24T04:49:07.776Z,17.77
2019-04-24T04:56:06.618Z,17.47
2019-04-24T04:57:39.927Z,18.47
2019-04-24T04:59:45.407Z,18.10
2019-04-24T05:03:48.887Z,17.93
2019-04-24T05:06:33.378Z,18.40
2019-04-24T05:08:50.300Z,17.90
2019-04-24T05:10:25.274Z,18.97
2019-04-24T05:12:26.803Z,18.63
2019-04-24T05:19:01.283Z,18.23
2019-04-24T05:22:38.020Z,18.00
2019-04-24T05:25:07.983Z,17.00
2019-04-24T05:29:32.227Z,18.33
2019-04-24T05:31:38.293Z,18.90
2019-04-24T05:33:38.621Z,18.67
2019-04-24T05:40:27.165Z,20.13
2019-04-24T05:44:18.828Z,18.40
2019-04-24T05:46:25.591Z,18.67
2019-04-24T05:48:35.975Z,20.70
2019-04-24T05:53:03.752Z,20.00
2019-04-24T05:55:13.336Z,19.20
2019-04-24T05:59:40.898Z,20.10
2019-04-24T06:01:49.132Z,19.40
2019-04-24T06:10:47.836Z,19.67
2019-04-24T06:13:35.750Z,18.40
2019-04-24T06:15:24.097Z,20.03
2019-04-24T06:17:29.837Z,19.10
2019-04-24T06:20:03.777Z,19.13
2019-04-24T06:24:19.083Z,18.33
2019-04-24T06:28:38.427Z,17.10
2019-04-24T06:32:33.554Z,17.00
2019-04-24T06:34:30.830Z,24.17
2019-04-24T06:39:00.377Z,17.50
2019-04-24T06:41:10.967Z,18.63
2019-04-24T06:47:39.164Z,18.80
2019-04-24T06:51:18.608Z,18.00
2019-04-24T06:53:17.368Z,18.37
2019-04-24T06:55:45.340Z,18.57
2019-04-24T07:01:38.085Z,18.80
2019-04-24T07:06:24.801Z,19.53
2019-04-24T07:08:36.895Z,15.80
2019-04-24T07:11:01.791Z,16.40
2019-04-24T07:15:58.287Z,16.43
2019-04-24T07:18:11.624Z,16.63
2019-04-24T07:22:18.173Z,17.10
2019-04-24T07:24:39.662Z,15.83
2019-04-24T07:26:19.128Z,16.50
2019-04-24T07:30:49.582Z,17.90
2019-04-24T07:35:19.829Z,16.60
2019-04-24T07:37:28.975Z,16.97
2019-04-24T07:39:37.044Z,16.17
2019-04-24T07:41:53.823Z,15.00
2019-04-24T07:43:42.303Z,17.00
2019-04-24T07:45:48.210Z,16.33
2019-04-24T07:48:03.044Z,16.47
2019-04-24T07:49:52.929Z,16.83
2019-04-24T07:52:06.994Z,17.10
2019-04-24T07:56:43.241Z,15.80
2019-04-24T07:58:20.201Z,16.47
2019-04-24T08:00:19.971Z,15.83
2019-04-24T08:02:49.701Z,16.90
2019-04-24T08:04:52.041Z,17.60
2019-04-24T08:07:06.615Z,15.83
2019-04-24T08:09:41.393Z,16.90
2019-04-24T08:11:46.431Z,14.73
2019-04-24T08:20:01.156Z,16.17
2019-04-24T08:21:48.211Z,17.13
2019-04-24T08:23:52.820Z,17.77
2019-04-24T08:25:53.890Z,15.70
2019-04-24T08:30:03.622Z,18.30
2019-04-24T08:32:19.228Z,16.73
2019-04-24T08:39:15.554Z,17.73
2019-04-24T08:41:24.304Z,16.50
2019-04-24T08:43:23.726Z,15.60
2019-04-24T08:45:36.998Z,15.90
2019-04-24T08:49:57.401Z,16.80
2019-04-24T08:52:15.479Z,16.60
2019-04-24T08:54:00.919Z,17.13
2019-04-24T08:56:07.319Z,16.80
2019-04-24T09:00:20.115Z,15.40
2019-04-24T09:02:46.906Z,17.03
2019-04-24T09:04:55.777Z,15.20
2019-04-24T09:06:47.607Z,17.17
2019-04-24T09:11:14.530Z,15.00
2019-04-24T09:13:28.446Z,17.10
2019-04-24T09:15:33.104Z,14.70
2019-04-24T09:17:23.123Z,14.90
2019-04-24T09:19:34.366Z,19.37
2019-04-24T09:21:38.509Z,17.00
2019-04-24T09:24:13.367Z,14.07
2019-04-24T09:26:40.022Z,13.70
2019-04-24T09:28:49.376Z,14.20
2019-04-24T09:30:50.965Z,14.83
2019-04-24T09:35:43.315Z,15.20
2019-04-24T09:37:46.374Z,14.67
2019-04-24T09:46:30.080Z,14.57
2019-04-24T09:50:45.361Z,13.70
2019-04-24T09:52:57.503Z,13.03
2019-04-24T09:55:02.166Z,14.07
2019-04-24T09:57:10.370Z,14.40
2019-04-24T09:59:17.605Z,13.73
2019-04-24T10:01:33.038Z,13.17
2019-04-24T10:08:02.576Z,13.03
2019-04-24T10:10:02.901Z,14.37
2019-04-24T10:12:31.644Z,13.70
2019-04-24T10:16:10.541Z,13.80
2019-04-24T10:18:38.454Z,13.70
2019-04-24T10:20:29.084Z,12.60
2019-04-24T10:25:12.423Z,12.10
2019-04-24T10:27:05.078Z,13.23
2019-04-24T10:29:30.091Z,12.13
2019-04-24T10:34:07.506Z,11.37
2019-04-24T10:36:21.779Z,12.53
2019-04-24T10:40:52.209Z,11.77
2019-04-24T10:47:43.682Z,10.70
2019-04-24T10:49:52.094Z,12.23
2019-04-24T10:51:57.766Z,11.13
2019-04-24T10:53:48.722Z,11.33
2019-04-24T10:58:01.995Z,11.93
2019-04-24T11:04:55.395Z,12.40
2019-04-24T11:07:36.296Z,12.40
2019-04-24T11:12:05.582Z,12.80
2019-04-24T11:14:34.259Z,13.40
2019-04-24T11:21:36.561Z,12.30
2019-04-24T11:25:52.716Z,12.73
2019-04-24T11:30:20.865Z,12.90
2019-04-24T11:37:01.090Z,13.37
2019-04-24T11:39:16.075Z,13.80
2019-04-24T11:41:24.115Z,14.60
2019-04-24T11:43:28.555Z,13.50
2019-04-24T11:45:47.959Z,13.40
2019-04-24T11:48:12.175Z,13.73
2019-04-24T11:50:35.266Z,13.00
2019-04-24T11:52:43.760Z,16.27
2019-04-24T11:54:37.862Z,13.37
2019-04-24T11:57:12.658Z,14.67
2019-04-24T11:58:47.830Z,12.93
2019-04-24T12:01:30.790Z,13.73
2019-04-24T12:03:43.120Z,14.47
2019-04-24T12:05:57.263Z,13.07
2019-04-24T12:08:07.192Z,15.07
2019-04-24T12:10:17.595Z,14.60
2019-04-24T12:12:10.073Z,15.17
2019-04-24T12:14:52.732Z,14.80
2019-04-24T12:19:07.456Z,14.43
2019-04-24T12:21:33.417Z,16.03
2019-04-24T12:23:29.393Z,14.63
2019-04-24T12:25:41.280Z,15.63
2019-04-24T12:27:36.622Z,12.80
2019-04-24T12:32:06.983Z,14.50
2019-04-24T12:34:10.045Z,13.10
2019-04-24T12:36:13.285Z,12.90
2019-04-24T12:38:27.952Z,13.07
2019-04-24T12:40:49.321Z,12.23
2019-04-24T12:42:54.436Z,13.87
2019-04-24T12:45:10.312Z,12.07
2019-04-24T12:53:25.150Z,16.03
2019-04-24T12:55:52.403Z,14.30
2019-04-24T13:00:06.349Z,13.43
2019-04-24T13:02:27.514Z,13.27
2019-04-24T13:06:20.468Z,16.13
2019-04-24T13:08:46.952Z,13.57
2019-04-24T13:10:56.944Z,11.70
2019-04-24T13:15:14.357Z,11.40
2019-04-24T13:17:24.692Z,12.30
2019-04-24T13:19:20.231Z,11.60
2019-04-24T13:21:00.168Z,12.37
2019-04-24T13:23:12.536Z,12.53
2019-04-24T13:25:43.179Z,11.33
2019-04-24T13:28:16.970Z,12.93
2019-04-24T13:30:13.721Z,12.50
2019-04-24T13:32:26.635Z,13.03
2019-04-24T13:38:38.027Z,10.60
2019-04-24T13:40:47.104Z,11.27
2019-04-24T13:42:48.571Z,9.13
2019-04-24T13:44:58.024Z,10.43
2019-04-24T13:47:09.761Z,11.13
2019-04-24T13:51:09.950Z,10.70
2019-04-24T13:57:07.205Z,10.63
2019-04-24T13:59:09.001Z,9.97
2019-04-24T14:01:35.271Z,10.20
2019-04-24T14:07:35.312Z,10.93
2019-04-24T14:10:15.011Z,10.33
2019-04-24T14:13:53.946Z,9.50
2019-04-24T14:20:13.904Z,9.83
2019-04-24T14:22:30.434Z,9.67
2019-04-24T14:26:26.664Z,10.63
2019-04-24T14:28:32.722Z,16.60
2019-04-24T14:30:41.832Z,10.33
2019-04-24T14:32:42.267Z,10.43
2019-04-24T14:34:42.349Z,10.20
2019-04-24T14:36:46.519Z,10.30
2019-04-24T14:39:13.928Z,10.63
2019-04-24T14:43:04.784Z,9.63
2019-04-24T14:51:41.292Z,10.70
2019-04-24T14:53:46.454Z,10.20
2019-04-24T14:57:59.246Z,10.73
2019-04-24T14:59:55.173Z,10.00
2019-04-24T15:02:06.297Z,10.37
2019-04-24T15:04:01.951Z,10.13
2019-04-24T15:14:23.028Z,9.53
2019-04-24T15:18:49.863Z,8.97
2019-04-24T15:20:44.454Z,8.67
2019-04-24T15:22:54.207Z,8.80
2019-04-24T15:26:57.089Z,8.73
2019-04-24T15:29:03.884Z,8.17
2019-04-24T15:30:58.852Z,8.07
2019-04-24T15:33:05.058Z,9.70
2019-04-24T15:35:18.665Z,8.20
2019-04-24T15:41:28.012Z,7.20
2019-04-24T15:45:19.379Z,7.50
2019-04-24T15:49:36.376Z,8.43
2019-04-24T15:51:28.635Z,7.80
2019-04-24T15:53:11.241Z,7.40
2019-04-24T15:55:22.498Z,8.30
2019-04-24T15:57:25.439Z,8.40
2019-04-24T15:59:53.797Z,6.43
2019-04-24T16:02:07.521Z,7.30
2019-04-24T16:05:50.973Z,7.50
2019-04-24T16:07:59.780Z,7.30
2019-04-24T16:10:11.566Z,7.30
2019-04-24T16:12:13.333Z,7.90
2019-04-24T16:14:36.874Z,6.83
2019-04-24T16:16:53.221Z,7.40
2019-04-24T16:19:17.215Z,7.10
2019-04-24T16:21:06.848Z,7.60
2019-04-24T16:25:11.110Z,6.73
2019-04-24T16:35:17.389Z,7.00
2019-04-24T16:37:31.726Z,7.50
2019-04-24T16:39:26.690Z,7.30
2019-04-24T16:52:24.928Z,8.00
2019-04-24T16:58:28.274Z,7.90
2019-04-24T17:02:52.135Z,8.80
2019-04-24T17:04:57.268Z,8.43
2019-04-24T17:06:56.539Z,7.63
2019-04-24T17:11:14.195Z,8.07
2019-04-24T17:15:13.751Z,7.70
2019-04-24T17:17:41.568Z,7.67
2019-04-24T17:19:46.612Z,9.40
2019-04-24T17:23:43.920Z,8.30
2019-04-24T17:28:11.973Z,9.30
2019-04-24T17:30:04.575Z,8.80
2019-04-24T17:32:02.531Z,8.40
2019-04-24T17:34:10.419Z,8.97
2019-04-24T17:37:44.525Z,9.43
2019-04-24T17:39:55.472Z,9.33
2019-04-24T17:42:02.091Z,9.60
2019-04-24T17:44:38.748Z,9.80
2019-04-24T17:46:32.414Z,9.00
2019-04-24T17:54:43.500Z,9.90
2019-04-24T17:56:56.581Z,10.30
2019-04-24T17:58:27.771Z,10.00
2019-04-24T18:00:43.964Z,10.07
2019-04-24T18:02:46.014Z,9.17
2019-04-24T18:04:47.701Z,10.17
2019-04-24T18:06:49.386Z,10.60
2019-04-24T18:08:52.428Z,9.80
2019-04-24T18:10:54.436Z,9.60
2019-04-24T18:12:56.150Z,9.57
2019-04-24T18:14:57.901Z,9.83
2019-04-24T18:17:01.111Z,9.43
2019-04-24T18:19:03.630Z,10.20
2019-04-24T18:21:05.833Z,8.97
2019-04-24T18:23:07.497Z,9.27
2019-04-24T18:25:32.233Z,9.50
2019-04-24T18:27:34.413Z,9.30
2019-04-24T18:29:36.296Z,9.70
2019-04-24T18:31:38.077Z,10.23
2019-04-24T18:33:40.100Z,9.87
2019-04-24T18:35:42.551Z,10.37
2019-04-24T18:37:44.736Z,9.87
2019-04-24T18:39:46.705Z,10.00
2019-04-24T18:41:48.382Z,9.43
2019-04-24T18:43:50.055Z,9.93
2019-04-24T18:45:51.727Z,9.40
2019-04-24T18:47:53.721Z,10.03
2019-04-24T18:49:55.656Z,9.60
2019-04-24T18:51:57.336Z,10.30
2019-04-24T18:53:59.002Z,9.63
2019-04-24T18:56:01.873Z,11.03
2019-04-24T18:58:03.773Z,10.83
2019-04-24T19:00:06.336Z,10.60
2019-04-24T19:02:08.629Z,11.10
2019-04-24T19:04:12.142Z,11.00
2019-04-24T19:06:28.119Z,9.13
2019-04-24T19:08:17.866Z,10.03
2019-04-24T19:10:19.575Z,10.03
2019-04-24T19:12:22.054Z,10.77
2019-04-24T19:14:23.856Z,10.03
2019-04-24T19:16:25.513Z,11.10
2019-04-24T19:18:27.188Z,9.07
2019-04-24T19:20:29.386Z,10.30
2019-04-24T19:22:31.065Z,9.37
2019-04-24T19:24:33.174Z,10.70
2019-04-24T19:26:35.013Z,9.33
2019-04-24T19:28:36.689Z,10.03
2019-04-24T19:30:38.407Z,10.10
2019-04-24T19:32:41.599Z,10.10
2019-04-24T19:34:43.557Z,9.90
2019-04-24T19:36:45.308Z,9.53
2019-04-24T19:38:46.975Z,9.37
2019-04-24T19:40:48.948Z,10.33
2019-04-24T19:42:51.704Z,10.00
2019-04-24T19:44:53.693Z,10.93
2019-04-24T19:46:55.370Z,10.93
2019-04-24T19:48:57.042Z,11.83
2019-04-24T19:50:58.701Z,11.30
2019-04-24T19:53:01.417Z,10.80
2019-04-24T19:55:04.337Z,10.17
2019-04-24T19:57:14.564Z,10.37
2019-04-24T19:59:11.304Z,10.40
2019-04-24T20:01:13.884Z,11.50
2019-04-24T20:03:17.323Z,11.03
2019-04-24T20:05:20.549Z,9.83
2019-04-24T20:07:23.203Z,10.70
2019-04-24T20:09:45.329Z,10.57
2019-04-24T20:11:48.729Z,11.20
2019-04-24T20:13:51.541Z,12.03
2019-04-24T20:15:53.569Z,11.80
2019-04-24T20:17:55.277Z,11.17
2019-04-24T20:19:56.945Z,10.90
2019-04-24T20:21:58.617Z,11.40
2019-04-24T20:24:00.277Z,11.23
2019-04-24T20:26:01.945Z,10.97
2019-04-24T20:28:03.625Z,12.47
2019-04-24T20:30:05.346Z,12.43
2019-04-24T20:32:07.044Z,11.67
2019-04-24T20:34:09.138Z,12.63
2019-04-24T20:36:11.418Z,12.33
2019-04-24T20:38:13.367Z,12.57
2019-04-24T20:40:15.960Z,12.27
2019-04-24T20:42:18.019Z,12.60
2019-04-24T20:44:19.677Z,12.90
2019-04-24T20:46:21.815Z,13.70
2019-04-24T20:48:24.160Z,13.80
2019-04-24T20:50:26.250Z,14.20
2019-04-24T20:52:28.221Z,13.87
2019-04-24T20:54:29.890Z,15.73
2019-04-24T20:56:32.149Z,14.67
2019-04-24T20:58:34.982Z,12.93
2019-04-24T21:00:36.909Z,15.33
2019-04-24T21:02:41.074Z,15.23
2019-04-24T21:04:42.741Z,15.10
2019-04-24T21:06:51.818Z,14.10
2019-04-24T21:09:03.126Z,11.87
2019-04-24T21:11:04.845Z,8.70
2019-04-24T21:13:06.528Z,7.10
2019-04-24T21:15:18.272Z,4.03
2019-04-24T21:17:20.998Z,4.10
2019-04-24T21:19:24.045Z,3.90
2019-04-24T21:21:26.433Z,3.77
2019-04-24T21:23:28.450Z,4.23
2019-04-24T21:25:31.509Z,4.90
2019-04-24T21:27:33.490Z,4.23
2019-04-24T21:29:35.460Z,5.10
2019-04-24T21:31:37.145Z,5.83
2019-04-24T21:33:38.830Z,4.30
2019-04-24T21:35:42.292Z,5.17
2019-04-24T21:37:44.057Z,4.33
2019-04-24T21:39:45.733Z,5.00
2019-04-24T21:41:47.665Z,4.93
2019-04-24T21:43:49.350Z,5.20
2019-04-24T21:45:51.017Z,5.20
2019-04-24T21:47:52.685Z,3.20
2019-04-24T21:49:54.353Z,3.50
2019-04-24T21:51:56.025Z,3.10
2019-04-24T21:54:04.284Z,3.23
2019-04-24T21:56:01.261Z,3.30
2019-04-24T21:58:04.217Z,2.90
2019-04-24T22:00:08.424Z,3.13
2019-04-24T22:02:25.105Z,3.13
2019-04-24T22:04:35.785Z,3.10
2019-04-24T22:06:43.178Z,2.70
2019-04-24T22:08:44.859Z,2.90
2019-04-24T22:10:46.521Z,3.17
2019-04-24T22:12:48.176Z,3.00
2019-04-24T22:14:49.857Z,2.90
2019-04-24T22:16:51.825Z,3.50
2019-04-24T22:18:53.697Z,2.90
2019-04-24T22:20:56.668Z,2.70
2019-04-24T22:23:16.745Z,2.97
2019-04-24T22:25:25.473Z,2.23
2019-04-24T22:27:38.497Z,2.40
2019-04-24T22:29:40.180Z,2.63
2019-04-24T22:31:48.317Z,2.80
2019-04-24T22:33:55.117Z,2.67
2019-04-24T22:35:57.097Z,1.90
2019-04-24T22:37:58.765Z,2.03
2019-04-24T22:40:22.403Z,1.90
2019-04-24T22:42:24.319Z,2.20
2019-04-24T22:44:29.664Z,2.40
2019-04-24T22:46:32.556Z,2.40
2019-04-24T22:48:35.193Z,2.87
2019-04-24T22:50:36.865Z,3.27
2019-04-24T22:52:39.176Z,2.73
2019-04-24T22:54:43.253Z,2.80
2019-04-24T22:56:55.253Z,2.73
2019-04-24T22:58:48.253Z,2.80
2019-04-24T23:00:49.929Z,2.57
2019-04-24T23:02:52.146Z,2.80
2019-04-24T23:04:53.986Z,2.50
2019-04-24T23:06:55.746Z,2.70
2019-04-24T23:08:57.401Z,2.60
2019-04-24T23:10:59.381Z,2.87
2019-04-24T23:13:02.085Z,2.93
2019-04-24T23:15:04.289Z,2.60
2019-04-24T23:17:06.286Z,2.80
2019-04-24T23:19:10.917Z,2.43
2019-04-24T23:21:30.454Z,2.87
2019-04-24T23:23:46.465Z,2.63
2019-04-24T23:26:00.520Z,2.53
2019-04-24T23:28:20.973Z,2.80
2019-04-24T23:30:34.921Z,2.80
2019-04-24T23:32:42.435Z,2.50
2019-04-24T23:34:46.053Z,2.60
2019-04-24T23:36:47.729Z,2.10
2019-04-24T23:38:49.393Z,2.43
2019-04-24T23:40:52.062Z,2.60
2019-04-24T23:42:54.377Z,2.37
2019-04-24T23:44:56.057Z,2.70
2019-04-24T23:46:57.713Z,2.83
2019-04-24T23:48:59.384Z,2.67
2019-04-24T23:51:01.928Z,2.33
2019-04-24T23:53:03.842Z,2.50
2019-04-24T23:55:07.397Z,2.57
2019-04-24T23:57:09.093Z,2.10
2019-04-24T23:59:11.029Z,2.27
